createdAt,value
2019-03-05T00:01:31.398Z,2.47
2019-03-05T00:04:37.194Z,2.13
2019-03-05T00:07:42.823Z,1.73
2019-03-05T00:10:48.613Z,1.57
2019-03-05T00:13:54.303Z,2.00
2019-03-05T00:17:01.956Z,1.80
2019-03-05T00:20:10.642Z,1.63
2019-03-05T00:23:20.756Z,1.77
2019-03-05T00:26:35.627Z,1.73
2019-03-05T00:30:21.092Z,2.07
2019-03-05T00:34:10.905Z,1.70
2019-03-05T00:37:51.540Z,2.07
2019-03-05T00:41:23.777Z,1.53
2019-03-05T00:45:09.082Z,1.60
2019-03-05T00:48:59.107Z,1.67
2019-03-05T00:52:48.687Z,1.70
2019-03-05T00:56:17.925Z,1.70
2019-03-05T00:59:54.080Z,1.23
2019-03-05T01:03:45.180Z,1.50
2019-03-05T01:06:51.130Z,1.93
2019-03-05T01:09:57.085Z,1.53
2019-03-05T01:13:03.361Z,2.07
2019-03-05T01:16:11.083Z,2.37
2019-03-05T01:19:16.753Z,2.00
2019-03-05T01:22:22.490Z,1.90
2019-03-05T01:25:30.122Z,2.20
2019-03-05T01:28:35.940Z,1.97
2019-03-05T01:32:01.254Z,2.17
2019-03-05T01:35:33.634Z,1.97
2019-03-05T01:38:48.851Z,1.80
2019-03-05T01:41:54.758Z,1.57
2019-03-05T01:45:00.651Z,1.63
2019-03-05T01:48:07.085Z,2.07
2019-03-05T01:51:12.753Z,1.83
2019-03-05T01:54:18.284Z,2.17
2019-03-05T01:57:24.682Z,1.37
2019-03-05T02:00:31.194Z,2.13
2019-03-05T02:03:36.896Z,1.20
2019-03-05T02:06:42.805Z,1.40
2019-03-05T02:09:48.667Z,1.40
2019-03-05T02:12:54.477Z,1.30
2019-03-05T02:16:00.124Z,1.73
2019-03-05T02:19:39.915Z,1.30
2019-03-05T02:23:15.511Z,1.10
2019-03-05T02:27:13.049Z,1.70
2019-03-05T02:31:04.533Z,1.50
2019-03-05T02:34:44.377Z,1.20
2019-03-05T02:38:28.309Z,1.37
2019-03-05T02:42:15.169Z,1.23
2019-03-05T02:45:47.731Z,1.63
2019-03-05T02:49:50.455Z,1.20
2019-03-05T02:53:13.527Z,1.30
2019-03-05T02:57:18.161Z,1.53
2019-03-05T03:00:41.523Z,1.97
2019-03-05T03:03:50.799Z,1.50
2019-03-05T03:06:56.820Z,1.67
2019-03-05T03:10:23.454Z,2.13
2019-03-05T03:13:31.376Z,0.97
2019-03-05T03:16:37.816Z,2.17
2019-03-05T03:19:43.604Z,1.10
2019-03-05T03:22:49.459Z,1.10
2019-03-05T03:25:55.902Z,1.13
2019-03-05T03:29:01.629Z,0.87
2019-03-05T03:32:06.967Z,0.80
2019-03-05T03:35:13.515Z,1.10
2019-03-05T03:38:19.235Z,0.80
2019-03-05T03:41:25.446Z,1.50
2019-03-05T03:44:31.009Z,0.70
2019-03-05T03:47:37.400Z,0.90
2019-03-05T03:50:43.164Z,1.03
2019-03-05T03:53:48.885Z,1.10
2019-03-05T03:56:55.078Z,0.80
2019-03-05T04:00:00.941Z,0.80
2019-03-05T04:03:07.160Z,0.50
2019-03-05T04:06:14.340Z,0.80
2019-03-05T04:09:20.855Z,0.80
2019-03-05T04:12:27.696Z,1.30
2019-03-05T04:15:33.627Z,0.80
2019-03-05T04:18:39.584Z,0.90
2019-03-05T04:21:45.388Z,0.80
2019-03-05T04:24:51.212Z,0.80
2019-03-05T04:27:57.108Z,1.07
2019-03-05T04:31:02.921Z,0.83
2019-03-05T04:34:08.589Z,0.97
2019-03-05T04:37:14.591Z,1.30
2019-03-05T04:40:20.458Z,1.37
2019-03-05T04:43:26.157Z,1.10
2019-03-05T04:46:35.244Z,1.27
2019-03-05T04:49:51.888Z,1.00
2019-03-05T04:52:57.797Z,1.53
2019-03-05T04:56:04.634Z,0.97
2019-03-05T04:59:10.298Z,1.50
2019-03-05T05:02:16.290Z,1.00
2019-03-05T05:05:22.321Z,1.00
2019-03-05T05:08:28.106Z,1.10
2019-03-05T05:11:34.214Z,0.90
2019-03-05T05:14:40.420Z,1.67
2019-03-05T05:17:46.150Z,1.10
2019-03-05T05:20:52.225Z,0.50
2019-03-05T05:23:57.861Z,0.87
2019-03-05T05:27:03.587Z,0.43
2019-03-05T05:30:39.989Z,0.50
2019-03-05T05:33:46.193Z,0.50
2019-03-05T05:36:51.980Z,0.70
2019-03-05T05:40:25.706Z,0.70
2019-03-05T05:43:32.006Z,0.60
2019-03-05T05:46:37.859Z,0.93
2019-03-05T05:49:43.514Z,0.70
2019-03-05T05:52:49.164Z,0.80
2019-03-05T05:55:55.257Z,0.80
2019-03-05T05:59:00.937Z,0.70
2019-03-05T06:02:06.509Z,0.80
2019-03-05T06:05:12.360Z,0.70
2019-03-05T06:08:18.538Z,0.80
2019-03-05T06:11:24.088Z,0.90
2019-03-05T06:14:29.693Z,1.00
2019-03-05T06:17:35.236Z,0.80
2019-03-05T06:20:42.678Z,1.00
2019-03-05T06:23:48.476Z,1.20
2019-03-05T06:26:54.177Z,1.10
2019-03-05T06:30:00.211Z,1.30
2019-03-05T06:33:06.225Z,1.00
2019-03-05T06:36:13.051Z,1.20
2019-03-05T06:39:19.196Z,0.93
2019-03-05T06:42:24.856Z,1.20
2019-03-05T06:45:30.466Z,1.23
2019-03-05T06:48:36.296Z,1.30
2019-03-05T06:51:42.511Z,1.20
2019-03-05T06:54:48.507Z,1.20
2019-03-05T06:57:55.103Z,1.40
2019-03-05T07:01:01.124Z,1.20
2019-03-05T07:04:07.266Z,1.37
2019-03-05T07:07:13.566Z,1.60
2019-03-05T07:10:33.895Z,1.13
2019-03-05T07:13:40.440Z,1.40
2019-03-05T07:17:12.019Z,1.60
2019-03-05T07:20:58.498Z,1.50
2019-03-05T07:24:34.049Z,1.03
2019-03-05T07:27:47.063Z,1.20
2019-03-05T07:30:52.762Z,1.40
2019-03-05T07:33:58.492Z,1.47
2019-03-05T07:37:04.811Z,1.20
2019-03-05T07:40:10.837Z,1.53
2019-03-05T07:43:17.383Z,1.30
2019-03-05T07:46:23.213Z,1.13
2019-03-05T07:49:29.429Z,1.20
2019-03-05T07:52:36.991Z,1.30
2019-03-05T07:55:42.649Z,1.47
2019-03-05T07:58:49.401Z,1.03
2019-03-05T08:01:55.174Z,1.07
2019-03-05T08:05:01.149Z,1.03
2019-03-05T08:08:42.694Z,1.20
2019-03-05T08:11:48.713Z,1.20
2019-03-05T08:15:44.525Z,1.20
2019-03-05T08:18:50.139Z,1.00
2019-03-05T08:21:55.943Z,0.63
2019-03-05T08:25:03.784Z,1.20
2019-03-05T08:28:10.266Z,1.70
2019-03-05T08:31:16.423Z,0.93
2019-03-05T08:34:24.410Z,0.87
2019-03-05T08:37:30.217Z,0.93
2019-03-05T08:40:36.408Z,1.10
2019-03-05T08:43:42.306Z,1.00
2019-03-05T08:46:48.770Z,1.17
2019-03-05T08:49:54.428Z,0.70
2019-03-05T08:53:00.688Z,1.20
2019-03-05T08:56:07.318Z,0.83
2019-03-05T08:59:13.046Z,0.90
2019-03-05T09:02:19.203Z,1.20
2019-03-05T09:05:26.127Z,0.83
2019-03-05T09:08:31.880Z,0.70
2019-03-05T09:11:38.483Z,0.80
2019-03-05T09:14:44.110Z,0.90
2019-03-05T09:17:49.841Z,1.13
2019-03-05T09:20:56.417Z,1.10
2019-03-05T09:24:02.468Z,0.90
2019-03-05T09:27:09.102Z,0.90
2019-03-05T09:30:18.005Z,1.27
2019-03-05T09:33:24.196Z,1.00
2019-03-05T09:36:30.709Z,0.90
2019-03-05T09:39:36.361Z,1.10
2019-03-05T09:42:42.223Z,0.70
2019-03-05T09:45:47.815Z,1.03
2019-03-05T09:48:53.778Z,0.90
2019-03-05T09:51:59.316Z,0.70
2019-03-05T09:55:05.258Z,0.80
2019-03-05T09:58:11.043Z,0.80
2019-03-05T10:01:17.377Z,0.60
2019-03-05T10:04:23.714Z,0.90
2019-03-05T10:07:31.849Z,1.00
2019-03-05T10:10:38.130Z,1.10
2019-03-05T10:13:44.390Z,1.07
2019-03-05T10:16:50.597Z,1.23
2019-03-05T10:20:18.023Z,0.73
2019-03-05T10:23:24.542Z,0.80
2019-03-05T10:26:30.575Z,0.80
2019-03-05T10:29:36.372Z,0.63
2019-03-05T10:32:42.613Z,0.80
2019-03-05T10:35:48.363Z,0.40
2019-03-05T10:38:57.483Z,0.50
2019-03-05T10:42:01.318Z,0.50
2019-03-05T10:45:08.402Z,0.40
2019-03-05T10:48:14.909Z,0.40
2019-03-05T10:51:22.165Z,0.67
2019-03-05T10:54:28.827Z,0.90
2019-03-05T10:57:34.593Z,0.37
2019-03-05T11:00:43.606Z,0.60
2019-03-05T11:03:49.338Z,0.43
2019-03-05T11:06:55.316Z,0.50
2019-03-05T11:10:01.809Z,0.60
2019-03-05T11:13:08.446Z,0.60
2019-03-05T11:16:14.394Z,0.40
2019-03-05T11:19:20.654Z,0.50
2019-03-05T11:22:27.055Z,0.50
2019-03-05T11:25:33.038Z,0.60
2019-03-05T11:28:38.832Z,0.83
2019-03-05T11:31:44.952Z,0.90
2019-03-05T11:34:51.155Z,0.80
2019-03-05T11:37:57.172Z,0.70
2019-03-05T11:41:06.325Z,0.57
2019-03-05T11:44:12.967Z,0.60
2019-03-05T11:47:19.046Z,0.83
2019-03-05T11:50:26.125Z,0.60
2019-03-05T11:53:33.011Z,0.60
2019-03-05T11:56:40.996Z,0.70
2019-03-05T11:59:47.744Z,0.40
2019-03-05T12:02:53.458Z,0.50
2019-03-05T12:05:59.307Z,0.50
2019-03-05T12:09:06.680Z,0.40
2019-03-05T12:12:14.923Z,0.50
2019-03-05T12:15:20.894Z,0.33
2019-03-05T12:18:26.719Z,0.40
2019-03-05T12:21:33.446Z,0.40
2019-03-05T12:24:40.440Z,0.30
2019-03-05T12:27:46.492Z,0.40
2019-03-05T12:30:53.125Z,0.30
2019-03-05T12:33:59.090Z,0.33
2019-03-05T12:37:05.460Z,0.30
2019-03-05T12:40:12.627Z,0.20
2019-03-05T12:43:18.388Z,0.20
2019-03-05T12:46:23.926Z,0.30
2019-03-05T12:49:30.035Z,0.30
2019-03-05T12:52:36.131Z,0.20
2019-03-05T12:55:42.311Z,0.40
2019-03-05T12:58:48.215Z,0.40
2019-03-05T13:01:54.060Z,0.30
2019-03-05T13:04:59.746Z,0.30
2019-03-05T13:08:06.164Z,0.20
2019-03-05T13:11:13.092Z,0.23
2019-03-05T13:14:20.486Z,0.50
2019-03-05T13:17:26.342Z,0.33
2019-03-05T13:20:32.487Z,0.30
2019-03-05T13:23:38.087Z,0.40
2019-03-05T13:26:45.107Z,0.40
2019-03-05T13:29:51.468Z,0.40
2019-03-05T13:32:59.168Z,0.40
2019-03-05T13:36:12.105Z,0.40
2019-03-05T13:39:13.324Z,0.37
2019-03-05T13:42:19.365Z,0.40
2019-03-05T13:45:25.900Z,0.27
2019-03-05T13:49:01.729Z,0.33
2019-03-05T13:52:36.062Z,0.90
2019-03-05T13:56:13.384Z,0.50
2019-03-05T13:59:39.685Z,0.40
2019-03-05T14:03:17.340Z,0.57
2019-03-05T14:06:59.313Z,0.60
2019-03-05T14:10:05.509Z,0.47
2019-03-05T14:13:13.001Z,0.30
2019-03-05T14:16:20.851Z,0.30
2019-03-05T14:19:26.797Z,0.30
2019-03-05T14:22:32.935Z,0.30
2019-03-05T14:25:39.373Z,0.30
2019-03-05T14:28:46.469Z,0.33
2019-03-05T14:31:52.402Z,0.30
2019-03-05T14:35:02.156Z,0.27
2019-03-05T14:38:08.221Z,0.30
2019-03-05T14:45:00.724Z,0.30
2019-03-05T14:48:07.657Z,1.07
2019-03-05T14:51:14.518Z,0.50
2019-03-05T14:54:21.871Z,0.40
2019-03-05T14:57:28.870Z,0.33
2019-03-05T15:00:35.762Z,0.30
2019-03-05T15:03:42.471Z,0.40
2019-03-05T15:06:49.971Z,0.50
2019-03-05T15:09:56.621Z,0.40
2019-03-05T15:13:15.310Z,0.70
2019-03-05T15:16:12.378Z,0.50
2019-03-05T15:19:21.670Z,0.70
2019-03-05T15:22:27.617Z,0.67
2019-03-05T15:25:35.545Z,0.50
2019-03-05T15:28:43.861Z,0.43
2019-03-05T15:31:53.770Z,0.50
2019-03-05T15:35:01.747Z,0.40
2019-03-05T15:38:08.183Z,0.50
2019-03-05T15:41:17.756Z,0.47
2019-03-05T15:44:24.700Z,0.30
2019-03-05T15:47:31.841Z,0.47
2019-03-05T15:50:38.792Z,0.50
2019-03-05T15:56:52.657Z,0.40
2019-03-05T16:00:00.441Z,0.57
2019-03-05T16:03:08.836Z,0.40
2019-03-05T16:06:16.131Z,0.50
2019-03-05T16:09:22.650Z,0.77
2019-03-05T16:12:30.763Z,0.40
2019-03-05T16:15:38.008Z,0.30
2019-03-05T16:18:45.055Z,0.80
2019-03-05T16:21:52.087Z,1.83
2019-03-05T16:24:58.785Z,0.50
2019-03-05T16:28:06.357Z,0.57
2019-03-05T16:31:49.791Z,0.50
2019-03-05T16:35:20.903Z,0.50
2019-03-05T16:38:55.134Z,0.60
2019-03-05T16:42:19.273Z,0.90
2019-03-05T16:45:54.180Z,0.90
2019-03-05T16:49:18.965Z,0.63
2019-03-05T16:52:37.538Z,0.67
2019-03-05T16:56:15.372Z,0.53
2019-03-05T16:59:40.029Z,1.00
2019-03-05T17:03:01.996Z,0.67
2019-03-05T17:06:45.049Z,0.70
2019-03-05T17:10:25.978Z,0.60
2019-03-05T17:13:32.820Z,0.57
2019-03-05T17:16:40.256Z,0.87
2019-03-05T17:19:47.121Z,0.63
2019-03-05T17:22:54.404Z,0.70
2019-03-05T17:26:01.186Z,0.90
2019-03-05T17:29:08.412Z,1.00
2019-03-05T17:32:15.375Z,5.67
2019-03-05T17:35:22.045Z,1.43
2019-03-05T17:38:28.710Z,0.70
2019-03-05T17:41:36.941Z,2.83
2019-03-05T17:44:43.601Z,6.03
2019-03-05T17:47:51.315Z,5.27
2019-03-05T17:50:57.851Z,3.07
2019-03-05T17:54:04.277Z,2.20
2019-03-05T17:57:10.875Z,1.33
2019-03-05T18:00:28.608Z,0.90
2019-03-05T18:03:35.330Z,0.73
2019-03-05T18:06:42.760Z,1.50
2019-03-05T18:09:50.623Z,1.20
2019-03-05T18:12:59.438Z,0.80
2019-03-05T18:16:06.283Z,1.33
2019-03-05T18:19:13.607Z,1.80
2019-03-05T18:22:20.740Z,1.50
2019-03-05T18:25:27.809Z,0.80
2019-03-05T18:28:34.749Z,1.30
2019-03-05T18:31:43.416Z,1.37
2019-03-05T18:34:50.235Z,1.57
2019-03-05T18:37:57.410Z,1.60
2019-03-05T18:41:04.212Z,1.50
2019-03-05T18:44:12.408Z,1.90
2019-03-05T18:47:19.731Z,2.10
2019-03-05T18:50:26.433Z,1.70
2019-03-05T18:53:33.593Z,1.40
2019-03-05T18:56:41.695Z,1.70
2019-03-05T18:59:48.783Z,2.47
2019-03-05T19:02:56.144Z,2.60
2019-03-05T19:06:02.742Z,1.30
2019-03-05T19:09:09.860Z,3.33
2019-03-05T19:12:18.628Z,2.00
2019-03-05T19:15:25.679Z,1.80
2019-03-05T19:18:32.904Z,1.80
2019-03-05T19:21:40.243Z,1.40
2019-03-05T19:24:47.268Z,1.37
2019-03-05T19:27:53.978Z,0.97
2019-03-05T19:31:01.331Z,1.93
2019-03-05T19:34:08.365Z,1.17
2019-03-05T19:37:15.237Z,2.20
2019-03-05T19:40:24.233Z,1.20
2019-03-05T19:43:30.760Z,1.70
2019-03-05T19:46:39.658Z,1.70
2019-03-05T19:49:47.887Z,1.37
2019-03-05T19:52:54.905Z,1.77
2019-03-05T19:56:02.645Z,1.60
2019-03-05T19:59:10.728Z,2.00
2019-03-05T20:02:18.317Z,1.60
2019-03-05T20:05:25.622Z,1.70
2019-03-05T20:08:39.796Z,4.00
2019-03-05T20:11:45.266Z,7.30
2019-03-05T20:14:54.110Z,13.10
2019-03-05T20:18:01.183Z,28.30
2019-03-05T20:21:10.908Z,26.43
2019-03-05T20:24:18.213Z,12.90
2019-03-05T20:27:25.538Z,6.80
2019-03-05T20:30:34.415Z,4.53
2019-03-05T20:33:42.197Z,3.80
2019-03-05T20:36:52.392Z,3.37
2019-03-05T20:40:02.662Z,3.70
2019-03-05T20:43:11.186Z,3.70
2019-03-05T20:46:22.586Z,3.70
2019-03-05T20:49:30.377Z,3.40
2019-03-05T20:52:37.907Z,4.10
2019-03-05T20:55:45.538Z,3.97
2019-03-05T20:58:52.342Z,4.83
2019-03-05T21:02:00.401Z,4.17
2019-03-05T21:05:07.799Z,3.50
2019-03-05T21:08:15.244Z,3.10
2019-03-05T21:11:22.173Z,3.10
2019-03-05T21:14:28.474Z,3.30
2019-03-05T21:17:35.395Z,3.00
2019-03-05T21:20:42.560Z,2.77
2019-03-05T21:23:50.594Z,3.40
2019-03-05T21:26:57.096Z,3.00
2019-03-05T21:30:04.059Z,3.73
2019-03-05T21:33:11.041Z,5.00
2019-03-05T21:36:18.033Z,4.63
2019-03-05T21:39:24.926Z,4.23
2019-03-05T21:42:33.855Z,5.00
2019-03-05T21:45:40.363Z,4.03
2019-03-05T21:48:46.800Z,4.53
2019-03-05T21:51:53.718Z,4.30
2019-03-05T21:55:05.626Z,3.80
2019-03-05T21:58:13.700Z,4.33
2019-03-05T22:01:21.030Z,3.93
2019-03-05T22:04:27.781Z,3.60
2019-03-05T22:07:34.520Z,3.60
2019-03-05T22:10:41.062Z,3.50
2019-03-05T22:13:47.808Z,3.50
2019-03-05T22:16:54.185Z,5.17
2019-03-05T22:20:01.243Z,4.13
2019-03-05T22:23:09.319Z,4.00
2019-03-05T22:26:16.767Z,5.83
2019-03-05T22:29:23.852Z,4.47
2019-03-05T22:32:30.248Z,4.50
2019-03-05T22:35:37.846Z,4.40
2019-03-05T22:38:44.589Z,4.97
2019-03-05T22:41:54.525Z,5.30
2019-03-05T22:45:01.105Z,5.60
2019-03-05T22:48:08.021Z,6.43
2019-03-05T22:51:14.785Z,5.60
2019-03-05T22:54:22.080Z,5.93
2019-03-05T22:57:29.267Z,4.70
2019-03-05T23:01:18.063Z,4.70
2019-03-05T23:04:35.090Z,5.43
2019-03-05T23:07:41.686Z,5.53
2019-03-05T23:10:48.380Z,5.53
2019-03-05T23:13:55.369Z,5.37
2019-03-05T23:17:02.081Z,5.37
2019-03-05T23:20:10.438Z,4.47
2019-03-05T23:23:17.293Z,4.73
2019-03-05T23:26:24.427Z,5.50
2019-03-05T23:29:36.793Z,4.63
2019-03-05T23:32:43.303Z,4.40
2019-03-05T23:35:50.611Z,4.40
2019-03-05T23:38:57.248Z,5.30
2019-03-05T23:42:03.848Z,4.10
2019-03-05T23:45:11.158Z,4.40
2019-03-05T23:48:17.643Z,3.80
2019-03-05T23:51:24.961Z,4.70
2019-03-05T23:54:31.725Z,5.10
2019-03-05T23:57:38.273Z,4.43
